createdAt,value
2022-08-19T07:25:04.131Z,27.42
2022-08-19T08:38:39.157Z,31.52
2022-08-19T08:41:10.318Z,31.23
2022-08-19T08:43:39.153Z,36.97
2022-08-19T08:46:08.725Z,31.85
2022-08-19T08:48:55.642Z,33.72
2022-08-19T08:51:33.185Z,28.05
2022-08-19T08:54:05.586Z,29.42
2022-08-19T08:56:32.702Z,26.63
2022-08-19T08:59:02.802Z,29.75
2022-08-19T09:01:30.909Z,71.38
2022-08-19T09:04:02.667Z,44.33
2022-08-19T09:06:40.691Z,56.17
2022-08-19T09:09:15.335Z,32.40
2022-08-19T09:11:44.456Z,33.08
2022-08-19T09:14:47.413Z,32.67
2022-08-19T09:17:09.448Z,40.30
2022-08-19T10:22:23.316Z,18.85
2022-08-19T10:24:53.558Z,4.25
2022-08-19T10:27:20.614Z,2.88
2022-08-19T10:29:48.686Z,6.28
2022-08-19T10:32:15.703Z,6.40
2022-08-19T10:34:48.294Z,7.75
2022-08-19T10:37:28.840Z,10.15
2022-08-19T10:39:58.671Z,5.97
2022-08-19T10:42:25.727Z,6.88
2022-08-19T10:44:52.686Z,5.13
2022-08-19T10:50:47.410Z,6.72
2022-08-19T10:53:14.461Z,7.32
2022-08-19T10:56:00.001Z,7.82
2022-08-19T10:58:27.141Z,6.82
2022-08-19T11:00:54.888Z,9.48
2022-08-19T11:03:21.776Z,8.77
2022-08-19T11:05:57.607Z,8.32
2022-08-19T11:08:25.670Z,7.85
2022-08-19T11:10:56.421Z,10.10
2022-08-19T12:11:13.025Z,7.22
2022-08-19T12:13:40.071Z,7.28
2022-08-19T12:16:12.380Z,10.48
2022-08-19T12:18:44.957Z,8.07
2022-08-19T12:21:13.286Z,8.18
2022-08-19T12:23:40.356Z,8.45
2022-08-19T12:26:07.278Z,9.02
2022-08-19T12:28:34.209Z,10.93
2022-08-19T12:31:00.910Z,8.70
2022-08-19T12:33:29.307Z,9.02
2022-08-19T12:35:56.184Z,9.10
2022-08-19T12:38:26.317Z,9.88
2022-08-19T12:40:55.984Z,8.52
2022-08-19T12:43:25.301Z,11.13
2022-08-19T12:45:52.004Z,31.42
2022-08-19T12:48:33.440Z,52.10
2022-08-19T12:51:03.033Z,8.07
2022-08-19T12:53:30.097Z,6.65
2022-08-19T12:55:58.107Z,6.55
2022-08-19T12:58:27.327Z,10.23
2022-08-19T15:07:36.342Z,2.65
2022-08-19T15:10:04.231Z,3.75
2022-08-19T15:12:31.533Z,5.72
2022-08-19T15:14:58.196Z,4.28
2022-08-19T15:17:43.593Z,3.20
2022-08-19T15:20:14.276Z,2.40
2022-08-19T15:22:42.272Z,3.47
2022-08-19T15:25:09.714Z,3.95
2022-08-19T15:27:40.744Z,2.30
2022-08-19T15:30:18.370Z,4.35
2022-08-19T15:32:48.863Z,3.83
2022-08-19T15:35:16.271Z,6.47
2022-08-19T15:37:43.265Z,11.63
2022-08-19T15:40:10.159Z,19.10
2022-08-19T15:42:37.731Z,4.72
2022-08-19T15:45:07.811Z,3.47
2022-08-19T15:47:35.672Z,10.73
2022-08-19T15:50:10.825Z,6.70
2022-08-19T15:52:49.405Z,5.18
2022-08-19T15:55:33.673Z,3.30
2022-08-19T15:58:30.778Z,3.03
2022-08-19T16:01:17.820Z,2.70
2022-08-19T16:04:14.938Z,3.15
2022-08-19T16:06:49.830Z,2.80
2022-08-19T16:09:17.171Z,3.22
2022-08-19T16:11:45.806Z,2.58
2022-08-19T16:14:13.885Z,2.90
2022-08-19T16:16:40.603Z,6.60
2022-08-19T16:19:10.206Z,2.40
2022-08-19T16:21:41.559Z,3.22
2022-08-19T16:24:10.385Z,2.30
2022-08-19T16:26:37.513Z,3.42
2022-08-19T16:29:08.688Z,3.13
2022-08-19T16:31:36.582Z,3.28
2022-08-19T16:34:04.100Z,4.40
2022-08-19T16:36:31.397Z,3.95
2022-08-19T16:38:58.241Z,3.55
2022-08-19T16:41:25.071Z,3.38
2022-08-19T16:43:52.671Z,3.90
2022-08-19T16:46:20.498Z,3.60
2022-08-19T16:48:49.524Z,5.25
2022-08-19T16:51:16.293Z,4.28
2022-08-19T16:53:43.694Z,4.57
2022-08-19T20:15:42.385Z,9.20
2022-08-19T20:18:10.901Z,6.85
2022-08-19T20:20:37.671Z,7.82
2022-08-19T20:23:05.478Z,8.13
2022-08-19T20:25:34.120Z,7.20
2022-08-19T20:28:01.764Z,8.02
2022-08-19T20:30:28.897Z,7.45
2022-08-19T20:33:00.752Z,6.22
2022-08-19T20:35:27.703Z,9.13
2022-08-19T20:37:58.290Z,7.97
2022-08-19T20:40:27.067Z,5.25
2022-08-19T20:42:54.763Z,6.70
2022-08-19T20:45:32.928Z,6.13
2022-08-19T20:48:03.255Z,8.05
2022-08-19T20:50:33.606Z,8.10
2022-08-19T20:53:01.208Z,6.93
2022-08-19T20:55:30.551Z,9.63
2022-08-19T20:57:58.842Z,6.22
2022-08-19T21:00:25.859Z,6.68
2022-08-19T21:02:52.867Z,8.25
2022-08-19T21:05:19.984Z,6.55
2022-08-19T21:07:47.013Z,6.68
2022-08-19T21:10:15.462Z,7.40
2022-08-19T21:12:44.483Z,7.78
2022-08-19T21:15:11.605Z,6.53
2022-08-19T21:17:38.723Z,8.13
2022-08-19T21:20:07.922Z,7.90
2022-08-19T21:22:34.985Z,6.57
2022-08-19T21:25:03.292Z,7.63
2022-08-19T21:27:30.306Z,10.68
2022-08-19T21:29:57.312Z,8.30
2022-08-19T21:32:24.305Z,10.15
2022-08-19T21:34:52.817Z,7.38
2022-08-19T21:37:25.117Z,7.65
2022-08-19T21:39:56.374Z,7.70
2022-08-19T21:42:24.173Z,9.05
2022-08-19T21:44:51.617Z,7.13
2022-08-19T21:47:18.517Z,8.00
2022-08-19T21:49:45.286Z,8.60
2022-08-19T21:52:13.409Z,9.50
2022-08-19T21:54:40.408Z,12.35
2022-08-19T21:57:10.132Z,10.15
2022-08-19T21:59:41.386Z,9.95
2022-08-19T22:02:22.111Z,10.45
2022-08-19T22:04:52.951Z,9.48
2022-08-19T22:07:21.082Z,8.50
2022-08-19T22:09:49.446Z,9.30
2022-08-19T22:12:25.544Z,8.70
2022-08-19T22:14:54.091Z,8.32
2022-08-19T22:17:21.351Z,10.93
2022-08-19T22:19:48.836Z,11.07
2022-08-19T22:22:27.412Z,11.07
2022-08-19T22:25:00.364Z,7.10
2022-08-19T22:27:28.262Z,10.70
2022-08-19T22:29:55.554Z,7.80
2022-08-19T22:32:27.891Z,6.30
2022-08-19T22:34:58.018Z,7.88
2022-08-19T22:37:25.113Z,9.27
2022-08-19T22:39:51.979Z,8.05
2022-08-19T22:42:20.828Z,8.50
2022-08-19T22:44:48.688Z,11.90
2022-08-19T22:47:15.541Z,9.10
2022-08-19T22:49:42.984Z,8.35
2022-08-19T22:52:17.902Z,9.93
2022-08-19T22:54:51.428Z,8.40
2022-08-19T22:57:19.969Z,9.80
2022-08-19T22:59:51.298Z,9.95
2022-08-19T23:02:28.414Z,9.05
2022-08-19T23:04:55.514Z,9.07
2022-08-19T23:07:23.586Z,10.68
2022-08-19T23:09:51.099Z,8.95
2022-08-19T23:12:28.518Z,9.52
2022-08-19T23:14:55.322Z,9.80
2022-08-19T23:17:23.248Z,8.93
2022-08-19T23:19:50.781Z,9.85
2022-08-19T23:22:19.025Z,8.93
2022-08-19T23:24:45.857Z,9.90
2022-08-19T23:27:31.380Z,8.02
2022-08-19T23:30:17.004Z,10.05
2022-08-19T23:32:46.102Z,7.57
2022-08-19T23:35:13.276Z,7.85
2022-08-19T23:37:40.463Z,8.95
2022-08-19T23:40:08.957Z,9.15
2022-08-19T23:42:35.980Z,9.13
2022-08-19T23:45:07.296Z,11.38
2022-08-19T23:47:35.251Z,9.07
2022-08-19T23:50:06.065Z,10.32
2022-08-19T23:52:35.564Z,9.02
2022-08-19T23:55:08.764Z,7.35
2022-08-19T23:57:35.808Z,7.15
